createdAt,value
2022-12-03T00:00:36.566Z,23.38
2022-12-03T00:03:03.606Z,20.52
2022-12-03T00:05:30.672Z,19.50
2022-12-03T00:07:57.692Z,20.13
2022-12-03T00:10:24.725Z,20.75
2022-12-03T00:12:52.392Z,20.73
2022-12-03T00:15:19.375Z,22.50
2022-12-03T00:17:46.231Z,21.52
2022-12-03T00:20:18.686Z,20.33
2022-12-03T00:22:45.702Z,20.23
2022-12-03T00:25:12.691Z,20.85
2022-12-03T00:27:39.626Z,22.90
2022-12-03T00:30:07.531Z,17.58
2022-12-03T00:32:34.447Z,18.27
2022-12-03T00:35:01.287Z,20.02
2022-12-03T00:37:28.173Z,18.92
2022-12-03T00:39:55.029Z,17.40
2022-12-03T00:42:21.941Z,18.67
2022-12-03T00:44:48.960Z,18.58
2022-12-03T00:47:15.831Z,16.58
2022-12-03T00:49:42.755Z,17.75
2022-12-03T00:52:09.659Z,17.17
2022-12-03T00:54:36.524Z,19.42
2022-12-03T00:57:03.487Z,20.42
2022-12-03T00:59:30.387Z,19.00
2022-12-03T01:01:57.343Z,15.75
2022-12-03T01:04:24.366Z,17.10
2022-12-03T01:06:51.400Z,18.48
2022-12-03T01:09:18.314Z,14.00
2022-12-03T01:11:45.269Z,21.40
2022-12-03T01:14:17.309Z,17.35
2022-12-03T01:16:44.310Z,20.88
2022-12-03T01:19:15.836Z,17.83
2022-12-03T01:21:43.969Z,19.40
2022-12-03T01:24:10.862Z,20.75
2022-12-03T01:26:37.976Z,17.98
2022-12-03T01:29:05.028Z,19.63
2022-12-03T01:31:50.531Z,20.00
2022-12-03T01:34:17.451Z,19.55
2022-12-03T01:36:44.382Z,19.33
2022-12-03T01:39:11.280Z,22.25
2022-12-03T01:41:38.172Z,21.40
2022-12-03T01:44:07.800Z,23.65
2022-12-03T01:46:39.863Z,23.60
2022-12-03T01:49:06.831Z,21.98
2022-12-03T01:51:33.694Z,22.08
2022-12-03T01:54:00.611Z,21.33
2022-12-03T01:56:27.441Z,22.85
2022-12-03T01:58:54.304Z,22.58
2022-12-03T02:01:21.315Z,22.48
2022-12-03T02:03:48.350Z,25.98
2022-12-03T02:06:17.443Z,23.55
2022-12-03T02:08:44.732Z,22.92
2022-12-03T02:11:28.307Z,23.67
2022-12-03T02:13:57.303Z,23.95
2022-12-03T02:16:24.220Z,26.23
2022-12-03T02:18:51.171Z,23.05
2022-12-03T02:21:21.006Z,25.25
2022-12-03T02:24:26.187Z,25.30
2022-12-03T02:26:53.071Z,25.40
2022-12-03T02:29:20.059Z,25.10
2022-12-03T02:31:46.921Z,21.92
2022-12-03T02:34:33.873Z,21.83
2022-12-03T02:37:00.917Z,23.60
2022-12-03T02:39:27.798Z,25.40
2022-12-03T02:42:13.405Z,23.95
2022-12-03T02:44:40.320Z,23.73
2022-12-03T02:47:07.197Z,22.17
2022-12-03T02:49:34.135Z,23.38
2022-12-03T02:52:00.950Z,23.65
2022-12-03T02:54:27.789Z,20.55
2022-12-03T02:56:54.702Z,23.60
2022-12-03T02:59:21.618Z,22.23
2022-12-03T03:01:48.546Z,19.45
2022-12-03T03:04:15.430Z,24.63
2022-12-03T03:06:42.315Z,22.05
2022-12-03T03:09:09.175Z,21.02
2022-12-03T03:11:36.070Z,22.70
2022-12-03T03:14:03.518Z,21.98
2022-12-03T03:16:30.721Z,19.67
2022-12-03T03:18:57.624Z,17.83
2022-12-03T03:21:24.512Z,18.80
2022-12-03T03:23:51.363Z,17.52
2022-12-03T03:26:18.271Z,19.50
2022-12-03T03:28:50.090Z,18.08
2022-12-03T03:31:18.447Z,20.27
2022-12-03T03:33:46.016Z,19.17
2022-12-03T03:36:12.921Z,19.23
2022-12-03T03:38:40.678Z,16.42
2022-12-03T03:41:07.932Z,18.60
2022-12-03T03:43:36.315Z,17.63
2022-12-03T03:46:04.768Z,20.20
2022-12-03T03:48:31.936Z,18.08
2022-12-03T03:50:58.773Z,17.15
2022-12-03T03:53:25.726Z,19.85
2022-12-03T03:55:52.555Z,16.98
2022-12-03T03:58:19.767Z,16.83
2022-12-03T04:00:46.759Z,17.35
2022-12-03T04:03:13.832Z,17.55
2022-12-03T04:05:40.671Z,19.92
2022-12-03T04:08:07.621Z,19.20
2022-12-03T04:10:54.824Z,18.60
2022-12-03T04:13:21.749Z,16.35
2022-12-03T04:15:48.634Z,19.33
2022-12-03T04:18:34.582Z,19.40
2022-12-03T04:21:19.916Z,18.98
2022-12-03T04:23:46.830Z,19.23
2022-12-03T04:26:32.359Z,21.38
2022-12-03T04:28:59.462Z,18.50
2022-12-03T04:31:45.214Z,17.45
2022-12-03T04:34:30.523Z,20.15
2022-12-03T04:36:57.492Z,17.95
2022-12-03T04:39:24.402Z,19.75
2022-12-03T04:41:51.290Z,21.70
2022-12-03T04:44:33.252Z,21.80
2022-12-03T04:47:00.923Z,19.88
2022-12-03T04:49:27.827Z,24.98
2022-12-03T04:51:55.588Z,22.15
2022-12-03T04:54:22.414Z,23.15
2022-12-03T04:56:49.342Z,23.17
2022-12-03T04:59:16.764Z,22.15
2022-12-03T05:01:45.070Z,24.60
2022-12-03T05:04:12.741Z,25.90
2022-12-03T05:06:39.714Z,26.45
2022-12-03T05:09:06.616Z,27.55
2022-12-03T05:11:33.507Z,23.85
2022-12-03T05:14:00.341Z,28.00
2022-12-03T05:16:29.068Z,27.27
2022-12-03T05:18:55.931Z,26.88
2022-12-03T05:21:22.867Z,26.70
2022-12-03T05:23:49.791Z,27.52
2022-12-03T05:26:16.667Z,29.30
2022-12-03T05:28:43.538Z,29.65
2022-12-03T05:31:10.531Z,30.35
2022-12-03T05:33:43.729Z,27.10
2022-12-03T05:36:11.356Z,31.20
2022-12-03T05:38:38.336Z,30.60
2022-12-03T05:41:25.282Z,29.40
2022-12-03T05:43:52.238Z,28.00
2022-12-03T05:46:19.143Z,32.17
2022-12-03T05:48:46.163Z,24.85
2022-12-03T05:51:13.058Z,28.27
2022-12-03T05:53:40.006Z,25.10
2022-12-03T05:56:07.129Z,26.30
2022-12-03T05:58:34.072Z,28.30
2022-12-03T06:01:00.939Z,28.33
2022-12-03T06:03:27.842Z,28.60
2022-12-03T06:05:54.832Z,26.65
2022-12-03T06:08:21.714Z,24.85
2022-12-03T06:10:48.594Z,25.63
2022-12-03T06:13:15.457Z,21.65
2022-12-03T06:15:44.192Z,26.70
2022-12-03T06:18:11.615Z,23.23
2022-12-03T06:20:38.573Z,26.35
2022-12-03T06:23:05.519Z,28.80
2022-12-03T06:25:32.400Z,21.40
2022-12-03T06:27:59.211Z,21.77
2022-12-03T06:30:26.106Z,20.63
2022-12-03T06:32:52.983Z,22.70
2022-12-03T06:35:19.921Z,23.40
2022-12-03T06:37:49.123Z,23.33
2022-12-03T06:40:16.905Z,22.75
2022-12-03T06:42:43.844Z,22.35
2022-12-03T06:45:11.325Z,20.60
2022-12-03T06:47:38.232Z,18.85
2022-12-03T06:50:06.924Z,21.38
2022-12-03T06:52:33.787Z,22.80
2022-12-03T06:55:00.703Z,23.83
2022-12-03T06:57:27.591Z,19.83
2022-12-03T06:59:54.849Z,21.88
2022-12-03T07:02:21.964Z,20.70
2022-12-03T07:04:48.844Z,24.17
2022-12-03T07:07:15.759Z,22.42
2022-12-03T07:09:43.003Z,21.42
2022-12-03T07:12:09.957Z,20.85
2022-12-03T07:14:36.910Z,17.65
2022-12-03T07:17:03.842Z,19.52
2022-12-03T07:19:32.829Z,18.05
2022-12-03T07:22:00.242Z,24.33
2022-12-03T07:24:27.460Z,21.67
2022-12-03T07:26:54.359Z,20.00
2022-12-03T07:29:21.299Z,23.00
2022-12-03T07:31:48.347Z,23.27
2022-12-03T07:34:15.288Z,20.95
2022-12-03T07:36:42.153Z,20.35
2022-12-03T07:39:09.204Z,22.42
2022-12-03T07:41:36.051Z,18.35
2022-12-03T07:44:03.002Z,18.88
2022-12-03T07:46:30.095Z,20.23
2022-12-03T07:48:57.035Z,17.38
2022-12-03T07:51:27.544Z,20.42
2022-12-03T07:53:58.886Z,19.38
2022-12-03T07:56:26.087Z,19.83
2022-12-03T07:58:52.965Z,18.08
2022-12-03T08:01:19.988Z,18.25
2022-12-03T08:03:46.914Z,15.85
2022-12-03T08:06:13.867Z,17.95
2022-12-03T08:08:40.802Z,17.42
2022-12-03T08:11:13.803Z,19.73
2022-12-03T08:13:40.974Z,20.35
2022-12-03T08:16:15.268Z,18.35
2022-12-03T08:18:42.311Z,19.75
2022-12-03T08:21:13.951Z,20.67
2022-12-03T08:23:41.879Z,16.20
2022-12-03T08:26:23.612Z,18.65
2022-12-03T08:28:51.655Z,15.97
2022-12-03T08:31:32.803Z,18.20
2022-12-03T08:34:17.009Z,17.20
2022-12-03T08:36:43.920Z,16.05
2022-12-03T08:39:29.817Z,14.48
2022-12-03T08:42:35.643Z,16.58
2022-12-03T08:45:39.702Z,17.85
2022-12-03T08:48:32.736Z,15.85
2022-12-03T08:51:25.150Z,21.48
2022-12-03T08:54:01.927Z,17.40
2022-12-03T08:56:30.422Z,17.98
2022-12-03T08:59:29.848Z,12.70
2022-12-03T09:01:57.924Z,14.18
2022-12-03T09:04:44.240Z,16.10
2022-12-03T09:07:11.220Z,15.05
2022-12-03T09:09:38.150Z,15.90
2022-12-03T09:12:05.260Z,14.85
2022-12-03T09:14:32.145Z,15.88
2022-12-03T09:16:59.108Z,16.20
2022-12-03T09:19:26.764Z,18.35
2022-12-03T09:21:54.463Z,15.50
2022-12-03T09:24:21.405Z,15.35
2022-12-03T09:26:48.428Z,15.02
2022-12-03T09:29:15.444Z,16.70
2022-12-03T09:31:42.494Z,13.70
2022-12-03T09:34:10.886Z,13.00
2022-12-03T09:36:37.907Z,14.70
2022-12-03T09:39:04.894Z,15.60
2022-12-03T09:41:31.814Z,14.77
2022-12-03T09:44:07.005Z,17.23
2022-12-03T09:46:35.699Z,15.35
2022-12-03T09:49:03.577Z,15.07
2022-12-03T09:51:32.098Z,16.17
2022-12-03T09:54:00.349Z,12.65
2022-12-03T09:56:27.288Z,16.65
2022-12-03T09:58:54.587Z,17.48
2022-12-03T10:01:21.678Z,14.38
2022-12-03T10:03:50.069Z,13.27
2022-12-03T10:06:21.733Z,13.82
2022-12-03T10:08:50.978Z,14.73
2022-12-03T10:11:18.361Z,13.32
2022-12-03T10:13:45.386Z,13.27
2022-12-03T10:16:15.317Z,13.00
2022-12-03T10:18:45.020Z,15.43
2022-12-03T10:21:31.235Z,14.23
2022-12-03T10:24:17.803Z,15.32
2022-12-03T10:26:45.669Z,13.38
2022-12-03T10:29:28.181Z,14.25
2022-12-03T10:32:04.246Z,12.10
2022-12-03T10:34:32.294Z,13.65
2022-12-03T10:37:12.341Z,14.18
2022-12-03T10:40:01.800Z,13.35
2022-12-03T10:42:30.624Z,16.55
2022-12-03T10:45:17.957Z,14.38
2022-12-03T10:48:01.949Z,13.55
2022-12-03T10:50:29.284Z,14.18
2022-12-03T10:52:56.217Z,12.27
2022-12-03T10:55:23.223Z,11.48
2022-12-03T10:57:50.287Z,11.80
2022-12-03T11:00:18.621Z,13.82
2022-12-03T11:02:48.298Z,14.88
2022-12-03T11:05:21.753Z,13.60
2022-12-03T11:07:48.822Z,12.88
2022-12-03T11:10:16.732Z,12.07
2022-12-03T11:13:04.386Z,12.00
2022-12-03T11:15:49.579Z,14.25
2022-12-03T11:18:37.682Z,12.95
2022-12-03T11:21:05.774Z,13.88
2022-12-03T11:23:44.655Z,12.88
2022-12-03T11:26:18.792Z,15.75
2022-12-03T11:28:47.090Z,12.95
2022-12-03T11:31:36.919Z,15.70
2022-12-03T11:34:22.121Z,12.00
2022-12-03T11:37:10.616Z,14.43
2022-12-03T11:39:50.082Z,13.48
2022-12-03T11:42:25.911Z,13.73
2022-12-03T11:45:10.891Z,14.95
2022-12-03T11:47:44.607Z,11.60
2022-12-03T11:50:40.451Z,13.20
2022-12-03T11:53:16.686Z,14.82
2022-12-03T11:56:06.449Z,12.88
2022-12-03T11:58:33.797Z,12.75
2022-12-03T12:01:02.412Z,13.48
2022-12-03T12:03:33.056Z,17.67
2022-12-03T12:06:00.892Z,14.95
2022-12-03T12:08:27.936Z,13.27
2022-12-03T12:10:55.168Z,17.83
2022-12-03T12:13:28.685Z,14.57
2022-12-03T12:15:58.739Z,15.20
2022-12-03T12:18:44.439Z,16.63
2022-12-03T12:21:43.330Z,15.07
2022-12-03T12:24:40.051Z,15.52
2022-12-03T12:27:33.106Z,16.08
2022-12-03T12:30:06.372Z,15.45
2022-12-03T12:32:35.298Z,15.73
2022-12-03T12:35:25.700Z,14.30
2022-12-03T12:38:01.003Z,16.73
2022-12-03T12:40:31.376Z,17.17
2022-12-03T12:43:02.115Z,16.55
2022-12-03T12:45:34.416Z,14.98
2022-12-03T12:48:26.808Z,17.50
2022-12-03T12:51:10.977Z,16.42
2022-12-03T12:53:38.289Z,18.08
2022-12-03T12:56:27.241Z,19.92
2022-12-03T12:58:54.224Z,21.80
2022-12-03T13:01:26.448Z,19.27
2022-12-03T13:03:53.654Z,20.63
2022-12-03T13:06:27.368Z,19.17
2022-12-03T13:08:54.484Z,17.77
2022-12-03T13:11:30.325Z,19.27
2022-12-03T13:13:57.288Z,20.35
2022-12-03T13:16:31.988Z,20.08
2022-12-03T13:19:00.356Z,24.45
2022-12-03T13:21:37.832Z,20.42
2022-12-03T13:24:33.318Z,23.50
2022-12-03T13:27:21.441Z,22.58
2022-12-03T13:30:15.637Z,20.50
2022-12-03T13:32:42.813Z,20.42
2022-12-03T13:35:35.345Z,23.15
2022-12-03T13:38:02.782Z,21.90
2022-12-03T13:40:31.315Z,22.17
2022-12-03T13:42:58.611Z,21.20
2022-12-03T13:45:31.190Z,24.67
2022-12-03T13:48:02.700Z,21.85
2022-12-03T13:50:45.057Z,21.38
2022-12-03T13:53:22.254Z,23.48
2022-12-03T13:55:51.310Z,23.08
2022-12-03T13:58:18.340Z,23.02
2022-12-03T14:00:45.328Z,23.00
2022-12-03T14:03:12.311Z,25.95
2022-12-03T14:05:39.210Z,23.38
2022-12-03T14:08:06.273Z,25.15
2022-12-03T14:10:33.329Z,26.75
2022-12-03T14:13:00.278Z,26.15
2022-12-03T14:15:27.191Z,22.58
2022-12-03T14:17:54.125Z,23.38
2022-12-03T14:20:21.091Z,25.48
2022-12-03T14:22:48.045Z,26.42
2022-12-03T14:25:17.484Z,26.20
2022-12-03T14:27:44.359Z,23.05
2022-12-03T14:30:11.686Z,26.23
2022-12-03T14:32:38.712Z,25.40
2022-12-03T14:35:09.889Z,25.75
2022-12-03T14:37:37.194Z,22.73
2022-12-03T14:40:04.751Z,23.85
2022-12-03T14:42:31.643Z,25.45
2022-12-03T14:44:58.518Z,24.80
2022-12-03T14:47:25.429Z,26.77
2022-12-03T14:49:52.994Z,23.77
2022-12-03T14:52:20.349Z,28.42
2022-12-03T14:54:47.308Z,25.95
2022-12-03T14:57:14.750Z,27.45
2022-12-03T14:59:42.175Z,24.90
2022-12-03T15:02:09.558Z,25.60
2022-12-03T15:04:37.214Z,21.73
2022-12-03T15:07:04.330Z,25.38
2022-12-03T15:09:31.238Z,25.10
2022-12-03T15:11:58.152Z,24.55
2022-12-03T15:14:25.050Z,28.45
2022-12-03T15:16:52.066Z,24.95
2022-12-03T15:19:18.942Z,26.17
2022-12-03T15:21:45.898Z,23.20
2022-12-03T15:24:12.972Z,27.10
2022-12-03T15:26:39.922Z,24.35
2022-12-03T15:29:06.842Z,24.45
2022-12-03T15:31:33.893Z,22.58
2022-12-03T15:34:00.960Z,23.70
2022-12-03T15:36:27.968Z,24.77
2022-12-03T15:38:54.812Z,25.65
2022-12-03T15:41:28.841Z,24.98
2022-12-03T15:44:00.206Z,27.58
2022-12-03T15:46:31.432Z,25.75
2022-12-03T15:49:00.966Z,25.42
2022-12-03T15:51:28.040Z,24.95
2022-12-03T15:53:55.060Z,24.33
2022-12-03T15:56:21.967Z,25.15
2022-12-03T15:58:49.031Z,24.02
2022-12-03T16:01:18.667Z,26.70
2022-12-03T16:03:45.780Z,31.45
2022-12-03T16:06:13.003Z,26.20
2022-12-03T16:08:41.113Z,26.25
2022-12-03T16:11:08.175Z,25.50
2022-12-03T16:13:35.341Z,25.38
2022-12-03T16:16:02.356Z,29.08
2022-12-03T16:18:29.528Z,27.35
2022-12-03T16:20:56.403Z,29.15
2022-12-03T16:23:23.392Z,30.85
2022-12-03T16:25:50.361Z,28.75
2022-12-03T16:28:17.287Z,29.33
2022-12-03T16:30:44.344Z,27.75
2022-12-03T16:33:11.279Z,28.98
2022-12-03T16:35:38.245Z,30.92
2022-12-03T16:38:05.245Z,28.73
2022-12-03T16:40:32.136Z,31.05
2022-12-03T16:42:58.979Z,28.98
2022-12-03T16:45:40.895Z,31.42
2022-12-03T16:48:07.836Z,31.90
2022-12-03T16:50:37.534Z,32.13
2022-12-03T16:53:04.679Z,29.17
2022-12-03T16:55:31.561Z,27.23
2022-12-03T16:57:58.471Z,30.20
2022-12-03T17:00:26.028Z,30.70
2022-12-03T17:02:53.074Z,31.88
2022-12-03T17:05:19.959Z,32.10
2022-12-03T17:07:47.000Z,30.67
2022-12-03T17:10:14.087Z,32.25
2022-12-03T17:13:08.226Z,34.60
2022-12-03T17:15:27.956Z,34.67
2022-12-03T17:17:54.870Z,34.38
2022-12-03T17:20:21.859Z,32.97
2022-12-03T17:22:48.840Z,34.55
2022-12-03T17:25:16.152Z,34.55
2022-12-03T17:27:45.510Z,31.80
2022-12-03T17:30:12.990Z,28.20
2022-12-03T17:32:40.052Z,30.45
2022-12-03T17:35:07.405Z,27.88
2022-12-03T17:37:34.517Z,25.70
2022-12-03T17:40:01.545Z,27.85
2022-12-03T17:42:28.403Z,28.15
2022-12-03T17:44:55.465Z,26.42
2022-12-03T17:47:24.551Z,28.67
2022-12-03T17:49:52.197Z,28.00
2022-12-03T17:52:19.359Z,25.63
2022-12-03T17:57:33.400Z,30.30
2022-12-03T18:00:02.708Z,27.60
2022-12-03T18:02:39.708Z,26.00
2022-12-03T18:05:06.872Z,27.65
2022-12-03T18:07:33.947Z,29.75
2022-12-03T18:10:00.917Z,29.77
2022-12-03T18:12:27.794Z,30.80
2022-12-03T18:14:54.830Z,29.15
2022-12-03T18:17:21.780Z,34.83
2022-12-03T18:19:48.752Z,27.83
2022-12-03T18:22:15.850Z,30.05
2022-12-03T18:24:44.955Z,30.85
2022-12-03T18:27:13.054Z,28.70
2022-12-03T18:29:40.011Z,29.20
2022-12-03T18:32:27.143Z,31.70
2022-12-03T18:34:55.631Z,29.58
2022-12-03T18:37:22.492Z,28.23
2022-12-03T18:39:49.414Z,32.85
2022-12-03T18:42:18.029Z,35.35
2022-12-03T18:44:49.774Z,31.20
2022-12-03T18:47:19.061Z,32.72
2022-12-03T18:49:46.178Z,33.45
2022-12-03T18:52:17.592Z,35.75
2022-12-03T18:54:44.727Z,33.85
2022-12-03T18:57:11.724Z,31.45
2022-12-03T18:59:38.944Z,33.95
2022-12-03T19:02:06.393Z,31.85
2022-12-03T19:04:33.576Z,35.80
2022-12-03T19:07:00.532Z,36.35
2022-12-03T19:09:27.555Z,34.05
2022-12-03T19:11:54.686Z,33.65
2022-12-03T19:14:21.626Z,34.13
2022-12-03T19:16:50.009Z,35.00
2022-12-03T19:19:17.057Z,31.70
2022-12-03T19:21:44.110Z,33.03
2022-12-03T19:24:26.287Z,32.60
2022-12-03T19:26:55.362Z,33.13
2022-12-03T19:29:25.595Z,29.77
2022-12-03T19:31:52.559Z,33.92
2022-12-03T19:34:19.578Z,32.92
2022-12-03T19:36:47.531Z,32.45
2022-12-03T19:39:14.448Z,34.60
2022-12-03T19:41:43.614Z,32.13
2022-12-03T19:44:17.445Z,34.08
2022-12-03T19:46:44.466Z,29.83
2022-12-03T19:49:11.424Z,29.88
2022-12-03T19:51:38.321Z,29.73
2022-12-03T19:54:06.157Z,31.55
2022-12-03T19:56:33.180Z,29.48
2022-12-03T19:59:00.273Z,29.52
2022-12-03T20:01:29.384Z,27.52
2022-12-03T20:03:57.202Z,28.17
2022-12-03T20:06:25.497Z,26.20
2022-12-03T20:09:03.446Z,31.33
2022-12-03T20:11:31.726Z,27.13
2022-12-03T20:14:07.324Z,30.35
2022-12-03T20:16:34.719Z,26.70
2022-12-03T20:19:03.725Z,27.15
2022-12-03T20:21:31.681Z,31.15
2022-12-03T20:23:58.809Z,28.33
2022-12-03T20:26:25.843Z,32.03
2022-12-03T20:28:56.211Z,30.33
2022-12-03T20:31:24.789Z,27.50
2022-12-03T20:33:53.011Z,29.65
2022-12-03T20:36:20.966Z,27.00
2022-12-03T20:38:47.836Z,30.60
2022-12-03T20:41:16.765Z,32.00
2022-12-03T20:43:43.742Z,30.75
2022-12-03T20:46:14.355Z,30.65
2022-12-03T20:48:41.547Z,29.38
2022-12-03T20:51:12.739Z,29.33
2022-12-03T20:53:39.698Z,30.00
2022-12-03T20:56:07.099Z,28.58
2022-12-03T20:58:34.245Z,31.58
2022-12-03T21:01:21.210Z,29.35
2022-12-03T21:03:48.385Z,33.65
2022-12-03T21:06:15.369Z,35.88
2022-12-03T21:08:42.943Z,32.35
2022-12-03T21:11:10.867Z,33.78
2022-12-03T21:13:41.126Z,36.10
2022-12-03T21:16:09.107Z,33.20
2022-12-03T21:18:36.125Z,29.58
2022-12-03T21:21:03.342Z,32.97
2022-12-03T21:23:30.536Z,31.52
2022-12-03T21:26:07.433Z,31.77
2022-12-03T21:28:34.425Z,30.63
2022-12-03T21:31:06.835Z,32.50
2022-12-03T21:36:01.359Z,32.55
2022-12-03T21:38:28.729Z,30.55
2022-12-03T21:40:55.910Z,31.98
2022-12-03T21:43:22.967Z,30.67
2022-12-03T21:45:49.949Z,32.92
2022-12-03T21:48:17.318Z,34.20
2022-12-03T21:50:44.824Z,32.05
2022-12-03T21:53:11.736Z,34.20
2022-12-03T21:55:40.560Z,30.45
2022-12-03T21:58:08.288Z,30.27
2022-12-03T22:00:35.410Z,29.75
2022-12-03T22:03:03.745Z,30.92
2022-12-03T22:05:30.735Z,31.27
2022-12-03T22:07:57.759Z,33.58
2022-12-03T22:10:24.688Z,30.95
2022-12-03T22:12:51.597Z,33.53
2022-12-03T22:15:19.561Z,31.35
2022-12-03T22:17:46.891Z,30.42
2022-12-03T22:20:13.783Z,31.48
2022-12-03T22:22:40.807Z,31.02
2022-12-03T22:25:08.001Z,34.70
2022-12-03T22:27:34.989Z,31.75
2022-12-03T22:30:02.340Z,32.15
2022-12-03T22:32:29.244Z,27.95
2022-12-03T22:34:56.123Z,32.75
2022-12-03T22:37:23.027Z,30.83
2022-12-03T22:39:49.932Z,30.20
2022-12-03T22:42:16.871Z,34.58
2022-12-03T22:44:43.796Z,32.83
2022-12-03T22:47:10.768Z,34.13
2022-12-03T22:49:37.736Z,31.95
2022-12-03T22:52:04.663Z,31.05
2022-12-03T22:54:31.572Z,34.88
2022-12-03T22:56:58.543Z,33.53
2022-12-03T22:59:25.652Z,36.60
2022-12-03T23:01:52.530Z,33.95
2022-12-03T23:04:19.585Z,34.00
2022-12-03T23:06:46.691Z,35.42
2022-12-03T23:09:13.758Z,29.83
2022-12-03T23:11:42.592Z,33.17
2022-12-03T23:14:09.666Z,36.50
2022-12-03T23:16:36.717Z,33.97
2022-12-03T23:19:04.275Z,30.67
2022-12-03T23:21:32.790Z,31.58
2022-12-03T23:24:00.222Z,32.72
2022-12-03T23:26:27.605Z,30.95
2022-12-03T23:28:54.519Z,35.55
2022-12-03T23:31:23.571Z,31.70
2022-12-03T23:33:51.114Z,28.73
2022-12-03T23:36:18.057Z,31.23
2022-12-03T23:38:44.995Z,29.55
2022-12-03T23:41:14.325Z,36.13
2022-12-03T23:43:41.307Z,33.67
2022-12-03T23:46:13.843Z,32.42
2022-12-03T23:51:12.300Z,33.38
2022-12-03T23:53:39.220Z,32.50
2022-12-03T23:56:08.266Z,33.65
2022-12-03T23:58:35.208Z,33.38
